sensor_id;sensor_type;location;lat;lon;timestamp;temperature;humidity
13123;DHT22;6627;50.920;12.050;2022-11-14T00:01:07;2.90;99.90
13123;DHT22;6627;50.920;12.050;2022-11-14T00:03:35;2.90;99.90
13123;DHT22;6627;50.920;12.050;2022-11-14T00:06:04;3.00;99.90
13123;DHT22;6627;50.920;12.050;2022-11-14T00:08:32;2.90;99.90
13123;DHT22;6627;50.920;12.050;2022-11-14T00:11:00;3.00;99.90
13123;DHT22;6627;50.920;12.050;2022-11-14T00:13:27;3.00;99.90
13123;DHT22;6627;50.920;12.050;2022-11-14T00:15:56;3.00;99.90
13123;DHT22;6627;50.920;12.050;2022-11-14T00:18:23;3.00;99.90
13123;DHT22;6627;50.920;12.050;2022-11-14T00:20:52;3.00;99.90
13123;DHT22;6627;50.920;12.050;2022-11-14T00:23:20;2.90;99.90
13123;DHT22;6627;50.920;12.050;2022-11-14T00:25:48;2.90;99.90
13123;DHT22;6627;50.920;12.050;2022-11-14T00:28:15;3.00;99.90
13123;DHT22;6627;50.920;12.050;2022-11-14T00:30:46;2.80;99.90
13123;DHT22;6627;50.920;12.050;2022-11-14T00:33:15;2.80;99.90
13123;DHT22;6627;50.920;12.050;2022-11-14T00:35:52;2.80;99.90
13123;DHT22;6627;50.920;12.050;2022-11-14T00:38:22;2.70;99.90
13123;DHT22;6627;50.920;12.050;2022-11-14T00:40:50;2.70;99.90
13123;DHT22;6627;50.920;12.050;2022-11-14T00:43:17;2.70;99.90
13123;DHT22;6627;50.920;12.050;2022-11-14T00:45:45;2.60;99.90
13123;DHT22;6627;50.920;12.050;2022-11-14T00:48:15;2.60;99.90
13123;DHT22;6627;50.920;12.050;2022-11-14T00:50:43;2.60;99.90
13123;DHT22;6627;50.920;12.050;2022-11-14T00:53:11;2.70;99.90
13123;DHT22;6627;50.920;12.050;2022-11-14T00:55:40;2.60;99.90
13123;DHT22;6627;50.920;12.050;2022-11-14T00:58:08;2.50;99.90
13123;DHT22;6627;50.920;12.050;2022-11-14T01:00:36;2.40;99.90
13123;DHT22;6627;50.920;12.050;2022-11-14T01:03:04;2.50;99.90
13123;DHT22;6627;50.920;12.050;2022-11-14T01:05:34;2.50;99.90
13123;DHT22;6627;50.920;12.050;2022-11-14T01:08:06;2.30;99.90
13123;DHT22;6627;50.920;12.050;2022-11-14T01:10:37;2.30;99.90
13123;DHT22;6627;50.920;12.050;2022-11-14T01:13:05;2.40;99.90
13123;DHT22;6627;50.920;12.050;2022-11-14T01:15:37;2.50;99.90
13123;DHT22;6627;50.920;12.050;2022-11-14T01:18:06;2.40;99.90
13123;DHT22;6627;50.920;12.050;2022-11-14T01:20:37;2.30;99.90
13123;DHT22;6627;50.920;12.050;2022-11-14T01:23:07;2.30;99.90
13123;DHT22;6627;50.920;12.050;2022-11-14T01:25:37;2.40;99.90
13123;DHT22;6627;50.920;12.050;2022-11-14T01:28:06;2.40;99.90
13123;DHT22;6627;50.920;12.050;2022-11-14T01:30:35;2.40;99.90
13123;DHT22;6627;50.920;12.050;2022-11-14T01:33:04;2.30;99.90
13123;DHT22;6627;50.920;12.050;2022-11-14T01:35:34;2.10;99.90
13123;DHT22;6627;50.920;12.050;2022-11-14T01:38:05;2.00;99.90
13123;DHT22;6627;50.920;12.050;2022-11-14T01:40:33;2.00;99.90
13123;DHT22;6627;50.920;12.050;2022-11-14T01:43:23;2.00;99.90
13123;DHT22;6627;50.920;12.050;2022-11-14T01:45:55;2.00;99.90
13123;DHT22;6627;50.920;12.050;2022-11-14T01:48:30;2.00;99.90
13123;DHT22;6627;50.920;12.050;2022-11-14T01:51:22;1.90;99.90
13123;DHT22;6627;50.920;12.050;2022-11-14T01:53:56;2.00;99.90
13123;DHT22;6627;50.920;12.050;2022-11-14T01:56:30;2.00;99.90
13123;DHT22;6627;50.920;12.050;2022-11-14T01:59:04;2.10;99.90
13123;DHT22;6627;50.920;12.050;2022-11-14T02:01:36;2.00;99.90
13123;DHT22;6627;50.920;12.050;2022-11-14T02:04:09;2.00;99.90
13123;DHT22;6627;50.920;12.050;2022-11-14T02:06:45;2.00;99.90
13123;DHT22;6627;50.920;12.050;2022-11-14T02:09:14;2.00;99.90
13123;DHT22;6627;50.920;12.050;2022-11-14T02:11:43;2.00;99.90
13123;DHT22;6627;50.920;12.050;2022-11-14T02:14:11;1.90;99.90
13123;DHT22;6627;50.920;12.050;2022-11-14T02:16:40;1.80;99.90
13123;DHT22;6627;50.920;12.050;2022-11-14T02:19:09;1.70;99.90
13123;DHT22;6627;50.920;12.050;2022-11-14T02:21:38;1.70;99.90
13123;DHT22;6627;50.920;12.050;2022-11-14T02:24:08;1.60;99.90
13123;DHT22;6627;50.920;12.050;2022-11-14T02:26:36;1.60;99.90
13123;DHT22;6627;50.920;12.050;2022-11-14T02:29:05;1.70;99.90
13123;DHT22;6627;50.920;12.050;2022-11-14T02:31:34;1.60;99.90
13123;DHT22;6627;50.920;12.050;2022-11-14T02:34:02;1.70;99.90
13123;DHT22;6627;50.920;12.050;2022-11-14T02:36:30;1.60;99.90
13123;DHT22;6627;50.920;12.050;2022-11-14T02:38:58;1.60;99.90
13123;DHT22;6627;50.920;12.050;2022-11-14T02:41:26;1.50;99.90
13123;DHT22;6627;50.920;12.050;2022-11-14T02:43:53;1.60;99.90
13123;DHT22;6627;50.920;12.050;2022-11-14T02:46:20;1.60;99.90
13123;DHT22;6627;50.920;12.050;2022-11-14T02:48:48;1.60;99.90
13123;DHT22;6627;50.920;12.050;2022-11-14T02:51:15;1.60;99.90
13123;DHT22;6627;50.920;12.050;2022-11-14T02:53:42;1.50;99.90
13123;DHT22;6627;50.920;12.050;2022-11-14T02:56:11;1.50;99.90
13123;DHT22;6627;50.920;12.050;2022-11-14T02:58:38;1.40;99.90
13123;DHT22;6627;50.920;12.050;2022-11-14T03:01:06;1.40;99.90
13123;DHT22;6627;50.920;12.050;2022-11-14T03:03:33;1.50;99.90
13123;DHT22;6627;50.920;12.050;2022-11-14T03:06:01;1.40;99.90
13123;DHT22;6627;50.920;12.050;2022-11-14T03:08:30;1.40;99.90
13123;DHT22;6627;50.920;12.050;2022-11-14T03:11:03;1.30;99.90
13123;DHT22;6627;50.920;12.050;2022-11-14T03:13:32;1.30;99.90
13123;DHT22;6627;50.920;12.050;2022-11-14T03:16:04;1.20;99.90
13123;DHT22;6627;50.920;12.050;2022-11-14T03:18:33;1.10;99.90
13123;DHT22;6627;50.920;12.050;2022-11-14T03:21:05;1.10;99.90
13123;DHT22;6627;50.920;12.050;2022-11-14T03:23:33;1.20;99.90
13123;DHT22;6627;50.920;12.050;2022-11-14T03:26:02;1.20;99.90
13123;DHT22;6627;50.920;12.050;2022-11-14T03:28:32;1.10;99.90
13123;DHT22;6627;50.920;12.050;2022-11-14T03:31:00;1.10;99.90
13123;DHT22;6627;50.920;12.050;2022-11-14T03:33:28;1.20;99.90
13123;DHT22;6627;50.920;12.050;2022-11-14T03:35:55;1.10;99.90
13123;DHT22;6627;50.920;12.050;2022-11-14T03:38:22;1.20;99.90
13123;DHT22;6627;50.920;12.050;2022-11-14T03:40:50;1.10;99.90
13123;DHT22;6627;50.920;12.050;2022-11-14T03:43:19;1.00;99.90
13123;DHT22;6627;50.920;12.050;2022-11-14T03:45:48;1.10;99.90
13123;DHT22;6627;50.920;12.050;2022-11-14T03:48:15;1.10;99.90
13123;DHT22;6627;50.920;12.050;2022-11-14T03:50:43;1.20;99.90
13123;DHT22;6627;50.920;12.050;2022-11-14T03:53:10;1.20;99.90
13123;DHT22;6627;50.920;12.050;2022-11-14T03:55:38;1.10;99.90
13123;DHT22;6627;50.920;12.050;2022-11-14T03:58:05;1.20;99.90
13123;DHT22;6627;50.920;12.050;2022-11-14T04:00:33;1.20;99.90
13123;DHT22;6627;50.920;12.050;2022-11-14T04:03:01;1.00;99.90
13123;DHT22;6627;50.920;12.050;2022-11-14T04:05:29;1.10;99.90
13123;DHT22;6627;50.920;12.050;2022-11-14T04:07:57;1.10;99.90
13123;DHT22;6627;50.920;12.050;2022-11-14T04:10:24;1.00;99.90
13123;DHT22;6627;50.920;12.050;2022-11-14T04:12:52;1.10;99.90
13123;DHT22;6627;50.920;12.050;2022-11-14T04:15:20;1.10;99.90
13123;DHT22;6627;50.920;12.050;2022-11-14T04:17:48;1.20;99.90
13123;DHT22;6627;50.920;12.050;2022-11-14T04:20:16;1.10;99.90
13123;DHT22;6627;50.920;12.050;2022-11-14T04:22:45;1.20;99.90
13123;DHT22;6627;50.920;12.050;2022-11-14T04:25:12;1.10;99.90
13123;DHT22;6627;50.920;12.050;2022-11-14T04:27:39;1.00;99.90
13123;DHT22;6627;50.920;12.050;2022-11-14T04:30:08;1.20;99.90
13123;DHT22;6627;50.920;12.050;2022-11-14T04:32:36;1.20;99.90
13123;DHT22;6627;50.920;12.050;2022-11-14T04:35:04;1.10;99.90
13123;DHT22;6627;50.920;12.050;2022-11-14T04:37:33;1.10;99.90
13123;DHT22;6627;50.920;12.050;2022-11-14T04:40:04;1.10;99.90
13123;DHT22;6627;50.920;12.050;2022-11-14T04:42:32;1.10;99.90
13123;DHT22;6627;50.920;12.050;2022-11-14T04:44:59;1.10;99.90
13123;DHT22;6627;50.920;12.050;2022-11-14T04:47:27;1.10;99.90
13123;DHT22;6627;50.920;12.050;2022-11-14T04:49:54;1.10;99.90
13123;DHT22;6627;50.920;12.050;2022-11-14T04:52:21;1.10;99.90
13123;DHT22;6627;50.920;12.050;2022-11-14T04:54:50;0.90;99.90
13123;DHT22;6627;50.920;12.050;2022-11-14T04:57:17;1.10;99.90
13123;DHT22;6627;50.920;12.050;2022-11-14T04:59:45;1.10;99.90
13123;DHT22;6627;50.920;12.050;2022-11-14T05:02:12;1.00;99.90
13123;DHT22;6627;50.920;12.050;2022-11-14T05:04:39;1.10;99.90
13123;DHT22;6627;50.920;12.050;2022-11-14T05:07:08;1.10;99.90
13123;DHT22;6627;50.920;12.050;2022-11-14T05:09:35;1.00;99.90
13123;DHT22;6627;50.920;12.050;2022-11-14T05:12:05;1.00;99.90
13123;DHT22;6627;50.920;12.050;2022-11-14T05:14:32;1.10;99.90
13123;DHT22;6627;50.920;12.050;2022-11-14T05:16:59;1.00;99.90
13123;DHT22;6627;50.920;12.050;2022-11-14T05:19:27;1.00;99.90
13123;DHT22;6627;50.920;12.050;2022-11-14T05:21:54;1.00;99.90
13123;DHT22;6627;50.920;12.050;2022-11-14T05:24:21;1.00;99.90
13123;DHT22;6627;50.920;12.050;2022-11-14T05:26:48;0.90;99.90
13123;DHT22;6627;50.920;12.050;2022-11-14T05:29:17;0.70;99.90
13123;DHT22;6627;50.920;12.050;2022-11-14T05:31:45;0.80;99.90
13123;DHT22;6627;50.920;12.050;2022-11-14T05:34:12;0.80;99.90
13123;DHT22;6627;50.920;12.050;2022-11-14T05:36:39;0.60;99.90
13123;DHT22;6627;50.920;12.050;2022-11-14T05:39:06;0.70;99.90
13123;DHT22;6627;50.920;12.050;2022-11-14T05:41:33;0.80;99.90
13123;DHT22;6627;50.920;12.050;2022-11-14T05:44:03;0.80;99.90
13123;DHT22;6627;50.920;12.050;2022-11-14T05:46:32;0.80;99.90
13123;DHT22;6627;50.920;12.050;2022-11-14T05:49:00;0.80;99.90
13123;DHT22;6627;50.920;12.050;2022-11-14T05:51:27;0.80;99.90
13123;DHT22;6627;50.920;12.050;2022-11-14T05:53:54;0.70;99.90
13123;DHT22;6627;50.920;12.050;2022-11-14T05:56:23;0.70;99.90
13123;DHT22;6627;50.920;12.050;2022-11-14T05:58:50;0.60;99.90
13123;DHT22;6627;50.920;12.050;2022-11-14T06:01:18;0.60;99.90
13123;DHT22;6627;50.920;12.050;2022-11-14T06:03:47;0.50;99.90
13123;DHT22;6627;50.920;12.050;2022-11-14T06:06:16;0.60;99.90
13123;DHT22;6627;50.920;12.050;2022-11-14T06:08:45;0.60;99.90
13123;DHT22;6627;50.920;12.050;2022-11-14T06:11:15;0.60;99.90
13123;DHT22;6627;50.920;12.050;2022-11-14T06:13:44;0.80;99.90
13123;DHT22;6627;50.920;12.050;2022-11-14T06:18:38;0.60;99.90
13123;DHT22;6627;50.920;12.050;2022-11-14T06:21:10;0.70;99.90
13123;DHT22;6627;50.920;12.050;2022-11-14T06:23:38;0.70;99.90
13123;DHT22;6627;50.920;12.050;2022-11-14T06:26:16;0.80;99.90
13123;DHT22;6627;50.920;12.050;2022-11-14T06:28:47;0.70;99.90
13123;DHT22;6627;50.920;12.050;2022-11-14T06:31:15;0.60;99.90
13123;DHT22;6627;50.920;12.050;2022-11-14T06:33:44;0.70;99.90
13123;DHT22;6627;50.920;12.050;2022-11-14T06:36:13;0.80;99.90
13123;DHT22;6627;50.920;12.050;2022-11-14T06:38:42;0.80;99.90
13123;DHT22;6627;50.920;12.050;2022-11-14T06:41:11;0.80;99.90
13123;DHT22;6627;50.920;12.050;2022-11-14T06:43:40;0.80;99.90
13123;DHT22;6627;50.920;12.050;2022-11-14T06:46:12;0.80;99.90
13123;DHT22;6627;50.920;12.050;2022-11-14T06:48:42;0.80;99.90
13123;DHT22;6627;50.920;12.050;2022-11-14T06:51:13;0.80;99.90
13123;DHT22;6627;50.920;12.050;2022-11-14T06:53:42;0.70;99.90
13123;DHT22;6627;50.920;12.050;2022-11-14T06:56:11;0.70;99.90
13123;DHT22;6627;50.920;12.050;2022-11-14T06:58:42;0.70;99.90
13123;DHT22;6627;50.920;12.050;2022-11-14T07:01:12;0.70;99.90
13123;DHT22;6627;50.920;12.050;2022-11-14T07:03:41;0.70;99.90
13123;DHT22;6627;50.920;12.050;2022-11-14T07:06:13;0.70;99.90
13123;DHT22;6627;50.920;12.050;2022-11-14T07:08:41;0.60;99.90
13123;DHT22;6627;50.920;12.050;2022-11-14T07:11:11;0.60;99.90
13123;DHT22;6627;50.920;12.050;2022-11-14T07:13:47;0.60;99.90
13123;DHT22;6627;50.920;12.050;2022-11-14T07:16:15;0.60;99.90
13123;DHT22;6627;50.920;12.050;2022-11-14T07:18:43;0.60;99.90
13123;DHT22;6627;50.920;12.050;2022-11-14T07:21:12;0.60;99.90
13123;DHT22;6627;50.920;12.050;2022-11-14T07:23:40;0.60;99.90
13123;DHT22;6627;50.920;12.050;2022-11-14T07:26:09;0.60;99.90
13123;DHT22;6627;50.920;12.050;2022-11-14T07:28:39;0.70;99.90
13123;DHT22;6627;50.920;12.050;2022-11-14T07:31:09;0.80;99.90
13123;DHT22;6627;50.920;12.050;2022-11-14T07:33:39;0.80;99.90
13123;DHT22;6627;50.920;12.050;2022-11-14T07:36:08;0.90;99.90
13123;DHT22;6627;50.920;12.050;2022-11-14T07:38:38;0.90;99.90
13123;DHT22;6627;50.920;12.050;2022-11-14T07:41:07;1.00;99.90
13123;DHT22;6627;50.920;12.050;2022-11-14T07:43:36;1.00;99.90
13123;DHT22;6627;50.920;12.050;2022-11-14T07:46:07;1.00;99.90
13123;DHT22;6627;50.920;12.050;2022-11-14T07:48:37;1.00;99.90
13123;DHT22;6627;50.920;12.050;2022-11-14T07:51:08;1.00;99.90
13123;DHT22;6627;50.920;12.050;2022-11-14T07:53:39;1.10;99.90
13123;DHT22;6627;50.920;12.050;2022-11-14T07:56:07;1.10;99.90
13123;DHT22;6627;50.920;12.050;2022-11-14T07:58:36;1.10;99.90
13123;DHT22;6627;50.920;12.050;2022-11-14T08:01:04;1.20;99.90
13123;DHT22;6627;50.920;12.050;2022-11-14T08:03:33;1.20;99.90
13123;DHT22;6627;50.920;12.050;2022-11-14T08:06:01;1.30;99.90
13123;DHT22;6627;50.920;12.050;2022-11-14T08:08:29;1.20;99.90
13123;DHT22;6627;50.920;12.050;2022-11-14T08:10:59;1.30;99.90
13123;DHT22;6627;50.920;12.050;2022-11-14T08:13:27;1.30;99.90
13123;DHT22;6627;50.920;12.050;2022-11-14T08:15:56;1.40;99.90
13123;DHT22;6627;50.920;12.050;2022-11-14T08:18:25;1.40;99.90
13123;DHT22;6627;50.920;12.050;2022-11-14T08:20:53;1.50;99.90
13123;DHT22;6627;50.920;12.050;2022-11-14T08:23:22;1.50;99.90
13123;DHT22;6627;50.920;12.050;2022-11-14T08:25:50;1.60;99.90
13123;DHT22;6627;50.920;12.050;2022-11-14T08:28:19;1.60;99.90
13123;DHT22;6627;50.920;12.050;2022-11-14T08:30:46;1.70;99.90
13123;DHT22;6627;50.920;12.050;2022-11-14T08:33:13;1.70;99.90
13123;DHT22;6627;50.920;12.050;2022-11-14T08:35:41;1.80;99.90
13123;DHT22;6627;50.920;12.050;2022-11-14T08:38:08;1.90;99.90
13123;DHT22;6627;50.920;12.050;2022-11-14T08:40:35;1.90;99.90
13123;DHT22;6627;50.920;12.050;2022-11-14T08:43:03;2.00;99.90
13123;DHT22;6627;50.920;12.050;2022-11-14T08:45:31;2.10;99.90
13123;DHT22;6627;50.920;12.050;2022-11-14T08:47:59;2.20;99.90
13123;DHT22;6627;50.920;12.050;2022-11-14T08:50:26;2.30;99.90
13123;DHT22;6627;50.920;12.050;2022-11-14T08:52:54;2.60;99.90
13123;DHT22;6627;50.920;12.050;2022-11-14T08:55:21;2.70;99.90
13123;DHT22;6627;50.920;12.050;2022-11-14T08:57:52;2.70;99.90
13123;DHT22;6627;50.920;12.050;2022-11-14T09:00:20;2.80;99.90
13123;DHT22;6627;50.920;12.050;2022-11-14T09:02:49;2.80;99.90
13123;DHT22;6627;50.920;12.050;2022-11-14T09:05:18;2.80;99.90
13123;DHT22;6627;50.920;12.050;2022-11-14T09:07:46;3.00;99.90
13123;DHT22;6627;50.920;12.050;2022-11-14T09:10:13;3.10;99.90
13123;DHT22;6627;50.920;12.050;2022-11-14T09:12:41;3.20;99.90
13123;DHT22;6627;50.920;12.050;2022-11-14T09:15:08;3.30;99.90
13123;DHT22;6627;50.920;12.050;2022-11-14T09:17:36;3.60;99.90
13123;DHT22;6627;50.920;12.050;2022-11-14T09:20:05;3.70;99.90
13123;DHT22;6627;50.920;12.050;2022-11-14T09:22:33;3.70;99.90
13123;DHT22;6627;50.920;12.050;2022-11-14T09:25:00;3.80;99.90
13123;DHT22;6627;50.920;12.050;2022-11-14T09:27:28;3.90;99.90
13123;DHT22;6627;50.920;12.050;2022-11-14T09:29:55;4.10;99.90
13123;DHT22;6627;50.920;12.050;2022-11-14T09:32:23;4.30;99.90
13123;DHT22;6627;50.920;12.050;2022-11-14T09:34:50;4.30;99.90
13123;DHT22;6627;50.920;12.050;2022-11-14T09:37:18;4.50;99.90
13123;DHT22;6627;50.920;12.050;2022-11-14T09:39:46;4.70;99.90
13123;DHT22;6627;50.920;12.050;2022-11-14T09:42:29;4.80;99.90
13123;DHT22;6627;50.920;12.050;2022-11-14T09:45:12;4.90;99.90
13123;DHT22;6627;50.920;12.050;2022-11-14T09:47:44;5.00;99.90
13123;DHT22;6627;50.920;12.050;2022-11-14T09:50:16;5.20;99.90
13123;DHT22;6627;50.920;12.050;2022-11-14T09:52:51;5.30;99.90
13123;DHT22;6627;50.920;12.050;2022-11-14T09:55:23;5.40;99.90
13123;DHT22;6627;50.920;12.050;2022-11-14T09:57:55;5.50;99.90
13123;DHT22;6627;50.920;12.050;2022-11-14T10:00:25;5.60;99.90
13123;DHT22;6627;50.920;12.050;2022-11-14T10:03:04;5.70;99.90
13123;DHT22;6627;50.920;12.050;2022-11-14T10:05:49;5.80;99.90
13123;DHT22;6627;50.920;12.050;2022-11-14T10:08:50;5.90;99.90
13123;DHT22;6627;50.920;12.050;2022-11-14T10:11:33;6.10;99.90
13123;DHT22;6627;50.920;12.050;2022-11-14T10:14:40;6.30;99.90
13123;DHT22;6627;50.920;12.050;2022-11-14T10:17:52;6.60;99.90
13123;DHT22;6627;50.920;12.050;2022-11-14T10:20:38;7.00;99.90
13123;DHT22;6627;50.920;12.050;2022-11-14T10:23:20;7.20;99.90
13123;DHT22;6627;50.920;12.050;2022-11-14T10:26:08;7.30;99.90
13123;DHT22;6627;50.920;12.050;2022-11-14T10:28:56;7.50;99.90
13123;DHT22;6627;50.920;12.050;2022-11-14T10:31:42;7.70;99.90
13123;DHT22;6627;50.920;12.050;2022-11-14T10:34:24;7.90;99.90
13123;DHT22;6627;50.920;12.050;2022-11-14T10:37:03;8.20;99.90
13123;DHT22;6627;50.920;12.050;2022-11-14T10:39:44;8.40;99.90
13123;DHT22;6627;50.920;12.050;2022-11-14T10:42:21;8.70;99.90
13123;DHT22;6627;50.920;12.050;2022-11-14T10:44:56;9.00;99.90
13123;DHT22;6627;50.920;12.050;2022-11-14T10:47:34;9.20;99.90
13123;DHT22;6627;50.920;12.050;2022-11-14T10:50:14;9.50;99.90
13123;DHT22;6627;50.920;12.050;2022-11-14T10:52:47;9.60;99.90
13123;DHT22;6627;50.920;12.050;2022-11-14T10:55:18;9.90;99.90
13123;DHT22;6627;50.920;12.050;2022-11-14T10:57:49;10.00;99.90
13123;DHT22;6627;50.920;12.050;2022-11-14T11:00:18;10.10;99.90
13123;DHT22;6627;50.920;12.050;2022-11-14T11:02:50;10.30;99.90
13123;DHT22;6627;50.920;12.050;2022-11-14T11:05:21;10.40;99.90
13123;DHT22;6627;50.920;12.050;2022-11-14T11:07:50;10.60;99.90
13123;DHT22;6627;50.920;12.050;2022-11-14T11:10:40;10.80;99.90
13123;DHT22;6627;50.920;12.050;2022-11-14T11:13:33;10.90;99.90
13123;DHT22;6627;50.920;12.050;2022-11-14T14:34:42;12.60;99.90
13123;DHT22;6627;50.920;12.050;2022-11-14T14:37:16;12.50;99.90
13123;DHT22;6627;50.920;12.050;2022-11-14T14:39:58;12.60;99.90
13123;DHT22;6627;50.920;12.050;2022-11-14T14:42:33;12.70;99.90
13123;DHT22;6627;50.920;12.050;2022-11-14T14:45:14;13.00;99.90
13123;DHT22;6627;50.920;12.050;2022-11-14T14:47:44;12.80;99.90
13123;DHT22;6627;50.920;12.050;2022-11-14T14:50:16;12.80;99.90
13123;DHT22;6627;50.920;12.050;2022-11-14T14:52:54;12.80;99.90
13123;DHT22;6627;50.920;12.050;2022-11-14T14:55:24;12.50;99.90
13123;DHT22;6627;50.920;12.050;2022-11-14T14:57:54;12.40;99.90
13123;DHT22;6627;50.920;12.050;2022-11-14T15:00:25;12.00;99.90
13123;DHT22;6627;50.920;12.050;2022-11-14T15:02:54;11.50;99.90
13123;DHT22;6627;50.920;12.050;2022-11-14T15:05:24;11.50;99.90
13123;DHT22;6627;50.920;12.050;2022-11-14T15:07:55;11.00;99.90
13123;DHT22;6627;50.920;12.050;2022-11-14T15:10:26;10.90;99.90
13123;DHT22;6627;50.920;12.050;2022-11-14T15:12:58;10.90;99.90
13123;DHT22;6627;50.920;12.050;2022-11-14T15:15:26;10.60;99.90
13123;DHT22;6627;50.920;12.050;2022-11-14T15:17:55;10.50;99.90
13123;DHT22;6627;50.920;12.050;2022-11-14T15:20:27;10.40;99.90
13123;DHT22;6627;50.920;12.050;2022-11-14T15:23:03;10.30;99.90
13123;DHT22;6627;50.920;12.050;2022-11-14T15:25:32;10.10;99.90
13123;DHT22;6627;50.920;12.050;2022-11-14T15:28:02;10.20;99.90
13123;DHT22;6627;50.920;12.050;2022-11-14T15:30:31;10.20;99.90
13123;DHT22;6627;50.920;12.050;2022-11-14T15:33:01;10.00;99.90
13123;DHT22;6627;50.920;12.050;2022-11-14T15:35:32;9.90;99.90
13123;DHT22;6627;50.920;12.050;2022-11-14T15:38:05;9.90;99.90
13123;DHT22;6627;50.920;12.050;2022-11-14T15:41:09;9.70;99.90
13123;DHT22;6627;50.920;12.050;2022-11-14T15:43:51;9.80;99.90
13123;DHT22;6627;50.920;12.050;2022-11-14T15:46:26;9.70;99.90
13123;DHT22;6627;50.920;12.050;2022-11-14T15:49:01;9.70;99.90
13123;DHT22;6627;50.920;12.050;2022-11-14T15:51:40;9.70;99.90
13123;DHT22;6627;50.920;12.050;2022-11-14T15:56:49;9.60;99.90
13123;DHT22;6627;50.920;12.050;2022-11-14T15:59:18;9.50;99.90
13123;DHT22;6627;50.920;12.050;2022-11-14T16:01:49;9.30;99.90
13123;DHT22;6627;50.920;12.050;2022-11-14T16:04:19;9.50;99.90
13123;DHT22;6627;50.920;12.050;2022-11-14T16:06:47;9.60;99.90
13123;DHT22;6627;50.920;12.050;2022-11-14T16:09:17;9.40;99.90
13123;DHT22;6627;50.920;12.050;2022-11-14T16:11:46;9.30;99.90
13123;DHT22;6627;50.920;12.050;2022-11-14T16:14:14;9.30;99.90
13123;DHT22;6627;50.920;12.050;2022-11-14T16:16:43;9.20;99.90
13123;DHT22;6627;50.920;12.050;2022-11-14T16:19:12;9.20;99.90
13123;DHT22;6627;50.920;12.050;2022-11-14T16:21:41;9.30;99.90
13123;DHT22;6627;50.920;12.050;2022-11-14T16:24:14;9.30;99.90
13123;DHT22;6627;50.920;12.050;2022-11-14T16:26:44;9.40;99.90
13123;DHT22;6627;50.920;12.050;2022-11-14T16:29:11;9.40;99.90
13123;DHT22;6627;50.920;12.050;2022-11-14T16:31:39;9.50;99.90
13123;DHT22;6627;50.920;12.050;2022-11-14T16:34:14;9.60;99.90
13123;DHT22;6627;50.920;12.050;2022-11-14T16:36:43;9.70;99.90
13123;DHT22;6627;50.920;12.050;2022-11-14T16:39:12;9.50;99.90
13123;DHT22;6627;50.920;12.050;2022-11-14T16:41:40;9.50;99.90
13123;DHT22;6627;50.920;12.050;2022-11-14T16:44:12;9.60;99.90
13123;DHT22;6627;50.920;12.050;2022-11-14T16:46:41;9.60;99.90
13123;DHT22;6627;50.920;12.050;2022-11-14T16:49:13;9.60;99.90
13123;DHT22;6627;50.920;12.050;2022-11-14T16:51:41;9.60;99.90
13123;DHT22;6627;50.920;12.050;2022-11-14T16:54:10;9.50;99.90
13123;DHT22;6627;50.920;12.050;2022-11-14T16:56:38;9.50;99.90
13123;DHT22;6627;50.920;12.050;2022-11-14T16:59:07;9.40;99.90
13123;DHT22;6627;50.920;12.050;2022-11-14T17:01:35;9.30;99.90
13123;DHT22;6627;50.920;12.050;2022-11-14T17:04:03;9.30;99.90
13123;DHT22;6627;50.920;12.050;2022-11-14T17:06:32;9.20;99.90
13123;DHT22;6627;50.920;12.050;2022-11-14T17:09:00;9.10;99.90
13123;DHT22;6627;50.920;12.050;2022-11-14T17:11:28;9.30;99.90
13123;DHT22;6627;50.920;12.050;2022-11-14T17:13:57;9.00;99.90
13123;DHT22;6627;50.920;12.050;2022-11-14T17:16:24;8.80;99.90
13123;DHT22;6627;50.920;12.050;2022-11-14T17:18:52;8.70;99.90
13123;DHT22;6627;50.920;12.050;2022-11-14T17:21:20;8.80;99.90
13123;DHT22;6627;50.920;12.050;2022-11-14T17:23:53;8.70;99.90
13123;DHT22;6627;50.920;12.050;2022-11-14T17:26:21;8.50;99.90
13123;DHT22;6627;50.920;12.050;2022-11-14T17:28:49;8.50;99.90
13123;DHT22;6627;50.920;12.050;2022-11-14T17:31:16;8.40;99.90
13123;DHT22;6627;50.920;12.050;2022-11-14T17:33:49;8.50;99.90
13123;DHT22;6627;50.920;12.050;2022-11-14T17:36:18;8.40;99.90
13123;DHT22;6627;50.920;12.050;2022-11-14T17:38:45;8.40;99.90
13123;DHT22;6627;50.920;12.050;2022-11-14T17:41:15;8.40;99.90
13123;DHT22;6627;50.920;12.050;2022-11-14T17:43:42;8.30;99.90
13123;DHT22;6627;50.920;12.050;2022-11-14T17:46:10;8.30;99.90
13123;DHT22;6627;50.920;12.050;2022-11-14T17:48:39;8.30;99.90
13123;DHT22;6627;50.920;12.050;2022-11-14T17:51:08;8.40;99.90
13123;DHT22;6627;50.920;12.050;2022-11-14T17:53:37;8.30;99.90
13123;DHT22;6627;50.920;12.050;2022-11-14T17:56:06;8.20;99.90
13123;DHT22;6627;50.920;12.050;2022-11-14T17:58:37;8.10;99.90
13123;DHT22;6627;50.920;12.050;2022-11-14T18:01:08;8.00;99.90
13123;DHT22;6627;50.920;12.050;2022-11-14T18:03:36;7.80;99.90
13123;DHT22;6627;50.920;12.050;2022-11-14T18:06:05;7.80;99.90
13123;DHT22;6627;50.920;12.050;2022-11-14T18:08:33;7.70;99.90
13123;DHT22;6627;50.920;12.050;2022-11-14T18:11:03;7.70;99.90
13123;DHT22;6627;50.920;12.050;2022-11-14T18:13:32;7.80;99.90
13123;DHT22;6627;50.920;12.050;2022-11-14T18:16:01;7.60;99.90
13123;DHT22;6627;50.920;12.050;2022-11-14T18:18:30;7.60;99.90
13123;DHT22;6627;50.920;12.050;2022-11-14T18:20:58;7.60;99.90
13123;DHT22;6627;50.920;12.050;2022-11-14T18:23:32;7.60;99.90
13123;DHT22;6627;50.920;12.050;2022-11-14T18:26:07;7.50;99.90
13123;DHT22;6627;50.920;12.050;2022-11-14T18:28:35;7.60;99.90
13123;DHT22;6627;50.920;12.050;2022-11-14T18:31:04;7.50;99.90
13123;DHT22;6627;50.920;12.050;2022-11-14T18:33:35;7.40;99.90
13123;DHT22;6627;50.920;12.050;2022-11-14T18:36:05;7.30;99.90
13123;DHT22;6627;50.920;12.050;2022-11-14T18:38:35;7.30;99.90
13123;DHT22;6627;50.920;12.050;2022-11-14T18:41:06;7.30;99.90
13123;DHT22;6627;50.920;12.050;2022-11-14T18:43:36;7.30;99.90
13123;DHT22;6627;50.920;12.050;2022-11-14T18:46:06;7.30;99.90
13123;DHT22;6627;50.920;12.050;2022-11-14T18:48:36;7.30;99.90
13123;DHT22;6627;50.920;12.050;2022-11-14T18:51:08;7.40;99.90
13123;DHT22;6627;50.920;12.050;2022-11-14T18:53:38;7.40;99.90
13123;DHT22;6627;50.920;12.050;2022-11-14T18:56:08;7.40;99.90
13123;DHT22;6627;50.920;12.050;2022-11-14T18:58:36;7.30;99.90
13123;DHT22;6627;50.920;12.050;2022-11-14T19:01:12;7.20;99.90
13123;DHT22;6627;50.920;12.050;2022-11-14T19:03:40;7.20;99.90
13123;DHT22;6627;50.920;12.050;2022-11-14T19:06:10;7.30;99.90
13123;DHT22;6627;50.920;12.050;2022-11-14T19:08:39;7.30;99.90
13123;DHT22;6627;50.920;12.050;2022-11-14T19:11:07;7.30;99.90
13123;DHT22;6627;50.920;12.050;2022-11-14T19:14:00;7.50;99.90
13123;DHT22;6627;50.920;12.050;2022-11-14T19:16:30;7.60;99.90
13123;DHT22;6627;50.920;12.050;2022-11-14T19:18:58;7.60;99.90
13123;DHT22;6627;50.920;12.050;2022-11-14T19:21:28;7.50;99.90
13123;DHT22;6627;50.920;12.050;2022-11-14T19:23:55;7.50;99.90
13123;DHT22;6627;50.920;12.050;2022-11-14T19:26:25;7.50;99.90
13123;DHT22;6627;50.920;12.050;2022-11-14T19:28:53;7.50;99.90